sensor_id;sensor_type;location;lat;lon;timestamp;pressure;altitude;pressure_sealevel;temperature;humidity
68628;BME280;55611;48.602;9.490;2023-07-31T00:02:17;96980;;;20.2;57
68628;BME280;55611;48.602;9.490;2023-07-31T00:04:48;96980;;;20.2;57
68628;BME280;55611;48.602;9.490;2023-07-31T00:07:19;96980;;;20.1;57
68628;BME280;55611;48.602;9.490;2023-07-31T00:09:49;96970;;;20.1;57
68628;BME280;55611;48.602;9.490;2023-07-31T00:12:20;96970;;;20.1;57
68628;BME280;55611;48.602;9.490;2023-07-31T00:14:51;96970;;;20;57
68628;BME280;55611;48.602;9.490;2023-07-31T00:17:22;96970;;;20;57
68628;BME280;55611;48.602;9.490;2023-07-31T00:19:52;96970;;;20;57
68628;BME280;55611;48.602;9.490;2023-07-31T00:22:23;96970;;;20;57
68628;BME280;55611;48.602;9.490;2023-07-31T00:24:55;96970;;;20.1;57
68628;BME280;55611;48.602;9.490;2023-07-31T00:27:25;96980;;;20.2;57
68628;BME280;55611;48.602;9.490;2023-07-31T00:29:56;96980;;;20.1;57
68628;BME280;55611;48.602;9.490;2023-07-31T00:32:26;96990;;;20.1;57
68628;BME280;55611;48.602;9.490;2023-07-31T00:34:57;96990;;;20.1;57
68628;BME280;55611;48.602;9.490;2023-07-31T00:37:28;96990;;;20;57.5
68628;BME280;55611;48.602;9.490;2023-07-31T00:39:59;96990;;;20;57.5
68628;BME280;55611;48.602;9.490;2023-07-31T00:42:30;96990;;;20.1;57.5
68628;BME280;55611;48.602;9.490;2023-07-31T00:45:00;96980;;;20.1;57.5
68628;BME280;55611;48.602;9.490;2023-07-31T00:47:31;96990;;;20.1;57.5
68628;BME280;55611;48.602;9.490;2023-07-31T00:50:02;96990;;;20.1;57.5
68628;BME280;55611;48.602;9.490;2023-07-31T00:52:33;96990;;;20.1;57.5
68628;BME280;55611;48.602;9.490;2023-07-31T00:55:03;96990;;;20.1;57.5
68628;BME280;55611;48.602;9.490;2023-07-31T00:57:34;96980;;;20;57.5
68628;BME280;55611;48.602;9.490;2023-07-31T01:00:05;96970;;;20.1;57.5
68628;BME280;55611;48.602;9.490;2023-07-31T01:02:36;96970;;;20.1;57
68628;BME280;55611;48.602;9.490;2023-07-31T01:07:47;96970;;;20.1;57
68628;BME280;55611;48.602;9.490;2023-07-31T01:10:11;96960;;;20;57
68628;BME280;55611;48.602;9.490;2023-07-31T01:12:39;96950;;;20;57
68628;BME280;55611;48.602;9.490;2023-07-31T01:15:09;96960;;;20;57
68628;BME280;55611;48.602;9.490;2023-07-31T01:17:41;96950;;;19.9;57
68628;BME280;55611;48.602;9.490;2023-07-31T01:20:15;96960;;;19.8;57
68628;BME280;55611;48.602;9.490;2023-07-31T01:23:20;96950;;;19.8;57
68628;BME280;55611;48.602;9.490;2023-07-31T01:25:16;96950;;;19.7;57
68628;BME280;55611;48.602;9.490;2023-07-31T01:27:44;96950;;;19.7;57
68628;BME280;55611;48.602;9.490;2023-07-31T01:30:16;96950;;;19.7;57
68628;BME280;55611;48.602;9.490;2023-07-31T01:32:45;96940;;;19.8;57
68628;BME280;55611;48.602;9.490;2023-07-31T01:35:16;96940;;;19.7;57
68628;BME280;55611;48.602;9.490;2023-07-31T01:37:46;96930;;;19.7;57
68628;BME280;55611;48.602;9.490;2023-07-31T01:40:17;96930;;;19.7;57
68628;BME280;55611;48.602;9.490;2023-07-31T01:42:48;96920;;;19.6;57
68628;BME280;55611;48.602;9.490;2023-07-31T01:45:19;96930;;;19.6;57
68628;BME280;55611;48.602;9.490;2023-07-31T01:47:50;96920;;;19.6;57
68628;BME280;55611;48.602;9.490;2023-07-31T01:50:20;96920;;;19.5;57
68628;BME280;55611;48.602;9.490;2023-07-31T01:52:51;96920;;;19.6;57
68628;BME280;55611;48.602;9.490;2023-07-31T01:55:22;96920;;;19.5;57
68628;BME280;55611;48.602;9.490;2023-07-31T01:57:53;96920;;;19.5;57
68628;BME280;55611;48.602;9.490;2023-07-31T02:00:23;96910;;;19.5;57
68628;BME280;55611;48.602;9.490;2023-07-31T02:02:54;96920;;;19.6;57
68628;BME280;55611;48.602;9.490;2023-07-31T02:05:25;96920;;;19.7;57
68628;BME280;55611;48.602;9.490;2023-07-31T02:07:56;96920;;;19.7;57
68628;BME280;55611;48.602;9.490;2023-07-31T02:10:27;96920;;;19.7;57
68628;BME280;55611;48.602;9.490;2023-07-31T02:12:57;96920;;;19.8;57
68628;BME280;55611;48.602;9.490;2023-07-31T02:15:28;96920;;;19.8;57
68628;BME280;55611;48.602;9.490;2023-07-31T02:17:59;96920;;;19.8;57
68628;BME280;55611;48.602;9.490;2023-07-31T02:20:32;96920;;;19.8;57
68628;BME280;55611;48.602;9.490;2023-07-31T02:23:00;96910;;;19.7;57
68628;BME280;55611;48.602;9.490;2023-07-31T02:25:31;96910;;;19.8;57
68628;BME280;55611;48.602;9.490;2023-07-31T02:28:02;96900;;;19.9;57
68628;BME280;55611;48.602;9.490;2023-07-31T02:30:33;96900;;;19.8;57
68628;BME280;55611;48.602;9.490;2023-07-31T02:33:04;96890;;;19.8;57
68628;BME280;55611;48.602;9.490;2023-07-31T02:35:34;96890;;;19.9;57
68628;BME280;55611;48.602;9.490;2023-07-31T02:38:05;96890;;;19.9;57
68628;BME280;55611;48.602;9.490;2023-07-31T02:40:36;96890;;;19.8;57
68628;BME280;55611;48.602;9.490;2023-07-31T02:45:37;96900;;;19.4;57
68628;BME280;55611;48.602;9.490;2023-07-31T02:48:08;96890;;;19;57
68628;BME280;55611;48.602;9.490;2023-07-31T02:50:39;96890;;;18.6;57
68628;BME280;55611;48.602;9.490;2023-07-31T02:53:10;96900;;;18.4;57
68628;BME280;55611;48.602;9.490;2023-07-31T02:55:40;96900;;;18.3;57
68628;BME280;55611;48.602;9.490;2023-07-31T02:58:11;96900;;;18.1;57
68628;BME280;55611;48.602;9.490;2023-07-31T03:00:43;96900;;;18;57
68628;BME280;55611;48.602;9.490;2023-07-31T03:03:13;96900;;;17.8;57
68628;BME280;55611;48.602;9.490;2023-07-31T03:05:44;96910;;;17.8;57
68628;BME280;55611;48.602;9.490;2023-07-31T03:08:14;96910;;;17.7;57
68628;BME280;55611;48.602;9.490;2023-07-31T03:10:45;96910;;;17.7;57
68628;BME280;55611;48.602;9.490;2023-07-31T03:13:16;96900;;;17.6;57
68628;BME280;55611;48.602;9.490;2023-07-31T03:15:47;96900;;;17.5;57
68628;BME280;55611;48.602;9.490;2023-07-31T03:18:17;96890;;;17.5;57
68628;BME280;55611;48.602;9.490;2023-07-31T03:20:48;96890;;;17.5;57
68628;BME280;55611;48.602;9.490;2023-07-31T03:23:19;96880;;;17.5;57
68628;BME280;55611;48.602;9.490;2023-07-31T03:26:06;96880;;;17.5;57
68628;BME280;55611;48.602;9.490;2023-07-31T03:28:21;96880;;;17.4;57
68628;BME280;55611;48.602;9.490;2023-07-31T03:30:51;96880;;;17.4;57
68628;BME280;55611;48.602;9.490;2023-07-31T03:33:22;96880;;;17.4;57
68628;BME280;55611;48.602;9.490;2023-07-31T03:35:53;96880;;;17.4;57.5
68628;BME280;55611;48.602;9.490;2023-07-31T03:38:24;96880;;;17.4;57.5
68628;BME280;55611;48.602;9.490;2023-07-31T03:40:54;96880;;;17.5;57.5
68628;BME280;55611;48.602;9.490;2023-07-31T03:43:25;96880;;;17.5;57.5
68628;BME280;55611;48.602;9.490;2023-07-31T03:45:56;96880;;;17.6;57.5
68628;BME280;55611;48.602;9.490;2023-07-31T03:48:27;96880;;;17.8;57.5
68628;BME280;55611;48.602;9.490;2023-07-31T03:50:58;96880;;;17.9;57.5
68628;BME280;55611;48.602;9.490;2023-07-31T03:53:28;96890;;;18.2;57.5
68628;BME280;55611;48.602;9.490;2023-07-31T03:55:59;96880;;;18.4;57.5
68628;BME280;55611;48.602;9.490;2023-07-31T03:58:30;96890;;;18.6;57.5
68628;BME280;55611;48.602;9.490;2023-07-31T04:01:01;96890;;;18.9;57.5
68628;BME280;55611;48.602;9.490;2023-07-31T04:03:31;96890;;;19;57.5
68628;BME280;55611;48.602;9.490;2023-07-31T04:06:02;96890;;;19.1;57
68628;BME280;55611;48.602;9.490;2023-07-31T04:08:33;96890;;;19.2;57
68628;BME280;55611;48.602;9.490;2023-07-31T04:11:04;96890;;;19.3;57
68628;BME280;55611;48.602;9.490;2023-07-31T04:13:34;96880;;;19.4;57
68628;BME280;55611;48.602;9.490;2023-07-31T04:16:05;96880;;;19.4;57
68628;BME280;55611;48.602;9.490;2023-07-31T04:18:37;96880;;;19.5;57
68628;BME280;55611;48.602;9.490;2023-07-31T04:21:07;96880;;;19.5;57
68628;BME280;55611;48.602;9.490;2023-07-31T04:23:38;96890;;;19.6;57
68628;BME280;55611;48.602;9.490;2023-07-31T04:26:08;96890;;;19.7;57
68628;BME280;55611;48.602;9.490;2023-07-31T04:28:39;96890;;;19.9;57
68628;BME280;55611;48.602;9.490;2023-07-31T04:31:10;96880;;;20;57
68628;BME280;55611;48.602;9.490;2023-07-31T04:33:41;96870;;;20;57
68628;BME280;55611;48.602;9.490;2023-07-31T04:36:11;96880;;;20.2;57
68628;BME280;55611;48.602;9.490;2023-07-31T04:38:42;96880;;;20.4;57
68628;BME280;55611;48.602;9.490;2023-07-31T04:41:13;96870;;;20.4;57
68628;BME280;55611;48.602;9.490;2023-07-31T04:43:44;96860;;;20.4;57
68628;BME280;55611;48.602;9.490;2023-07-31T04:46:15;96860;;;20.4;57
68628;BME280;55611;48.602;9.490;2023-07-31T04:48:45;96860;;;20.4;57
68628;BME280;55611;48.602;9.490;2023-07-31T04:51:16;96860;;;20.3;57
68628;BME280;55611;48.602;9.490;2023-07-31T04:53:47;96860;;;20.3;57
68628;BME280;55611;48.602;9.490;2023-07-31T04:56:18;96850;;;20.2;57
68628;BME280;55611;48.602;9.490;2023-07-31T04:58:48;96860;;;20.3;57
68628;BME280;55611;48.602;9.490;2023-07-31T05:01:19;96860;;;20.2;57
68628;BME280;55611;48.602;9.490;2023-07-31T05:03:50;96860;;;20.2;57
68628;BME280;55611;48.602;9.490;2023-07-31T05:06:21;96860;;;20.2;57
68628;BME280;55611;48.602;9.490;2023-07-31T05:08:52;96860;;;20.3;57
68628;BME280;55611;48.602;9.490;2023-07-31T05:11:22;96860;;;20.3;57
68628;BME280;55611;48.602;9.490;2023-07-31T05:13:53;96870;;;20.4;57
68628;BME280;55611;48.602;9.490;2023-07-31T05:16:24;96860;;;20.5;57
68628;BME280;55611;48.602;9.490;2023-07-31T05:18:55;96860;;;20.5;57
68628;BME280;55611;48.602;9.490;2023-07-31T05:21:25;96850;;;20.6;57
68628;BME280;55611;48.602;9.490;2023-07-31T05:23:56;96860;;;20.6;57
68628;BME280;55611;48.602;9.490;2023-07-31T05:26:27;96870;;;20.6;57
68628;BME280;55611;48.602;9.490;2023-07-31T05:28:58;96860;;;20.6;57
68628;BME280;55611;48.602;9.490;2023-07-31T05:31:29;96860;;;20.7;57
68628;BME280;55611;48.602;9.490;2023-07-31T05:33:59;96870;;;20.7;57
68628;BME280;55611;48.602;9.490;2023-07-31T05:36:30;96880;;;20.8;57
68628;BME280;55611;48.602;9.490;2023-07-31T05:39:01;96860;;;20.7;57
68628;BME280;55611;48.602;9.490;2023-07-31T05:41:32;96860;;;20.7;57
68628;BME280;55611;48.602;9.490;2023-07-31T05:44:03;96870;;;20.8;57
68628;BME280;55611;48.602;9.490;2023-07-31T05:46:33;96870;;;20.8;57
68628;BME280;55611;48.602;9.490;2023-07-31T05:49:04;96870;;;20.8;57
68628;BME280;55611;48.602;9.490;2023-07-31T05:51:35;96880;;;20.9;57
68628;BME280;55611;48.602;9.490;2023-07-31T05:54:05;96870;;;20.9;57
68628;BME280;55611;48.602;9.490;2023-07-31T05:56:36;96870;;;21;57
68628;BME280;55611;48.602;9.490;2023-07-31T05:59:08;96860;;;21.1;57
68628;BME280;55611;48.602;9.490;2023-07-31T06:01:38;96870;;;21.1;57
68628;BME280;55611;48.602;9.490;2023-07-31T06:04:09;96870;;;21.2;57
68628;BME280;55611;48.602;9.490;2023-07-31T06:06:39;96860;;;21.2;57
68628;BME280;55611;48.602;9.490;2023-07-31T06:09:10;96860;;;21.3;57
68628;BME280;55611;48.602;9.490;2023-07-31T06:11:41;96860;;;21.4;57
68628;BME280;55611;48.602;9.490;2023-07-31T06:14:12;96860;;;21.7;57
68628;BME280;55611;48.602;9.490;2023-07-31T06:16:43;96850;;;22;57
68628;BME280;55611;48.602;9.490;2023-07-31T06:19:13;96850;;;22.1;56.5
68628;BME280;55611;48.602;9.490;2023-07-31T06:21:44;96860;;;22;56.5
68628;BME280;55611;48.602;9.490;2023-07-31T06:24:15;96860;;;21.9;56.5
68628;BME280;55611;48.602;9.490;2023-07-31T06:26:46;96870;;;21.8;56.5
68628;BME280;55611;48.602;9.490;2023-07-31T06:29:16;96870;;;21.7;56.5
68628;BME280;55611;48.602;9.490;2023-07-31T06:31:47;96860;;;21.6;56.5
68628;BME280;55611;48.602;9.490;2023-07-31T06:34:18;96860;;;21.6;56.5
68628;BME280;55611;48.602;9.490;2023-07-31T06:36:49;96860;;;21.6;56.5
68628;BME280;55611;48.602;9.490;2023-07-31T06:39:19;96860;;;21.6;56.5
68628;BME280;55611;48.602;9.490;2023-07-31T06:41:50;96870;;;21.7;56.5
68628;BME280;55611;48.602;9.490;2023-07-31T06:44:21;96870;;;21.6;56.5
68628;BME280;55611;48.602;9.490;2023-07-31T06:46:52;96870;;;21.6;56.5
68628;BME280;55611;48.602;9.490;2023-07-31T06:49:22;96860;;;21.7;56.5
68628;BME280;55611;48.602;9.490;2023-07-31T06:51:56;96870;;;21.8;56.5
68628;BME280;55611;48.602;9.490;2023-07-31T06:54:24;96870;;;21.8;56.5
68628;BME280;55611;48.602;9.490;2023-07-31T06:56:55;96870;;;22;56.5
68628;BME280;55611;48.602;9.490;2023-07-31T06:59:26;96860;;;22;56.5
68628;BME280;55611;48.602;9.490;2023-07-31T07:01:56;96860;;;22.1;56.5
68628;BME280;55611;48.602;9.490;2023-07-31T07:04:27;96860;;;22.2;56.5
68628;BME280;55611;48.602;9.490;2023-07-31T07:06:58;96850;;;22.4;56.5
68628;BME280;55611;48.602;9.490;2023-07-31T07:09:29;96860;;;22.5;56.5
68628;BME280;55611;48.602;9.490;2023-07-31T07:12:00;96850;;;22.6;56.5
68628;BME280;55611;48.602;9.490;2023-07-31T07:14:30;96850;;;22.6;56.5
68628;BME280;55611;48.602;9.490;2023-07-31T07:17:01;96860;;;22.7;56.5
68628;BME280;55611;48.602;9.490;2023-07-31T07:19:32;96860;;;22.8;56.5
68628;BME280;55611;48.602;9.490;2023-07-31T07:22:03;96870;;;22.9;56.5
68628;BME280;55611;48.602;9.490;2023-07-31T07:24:33;96860;;;23;56.5
68628;BME280;55611;48.602;9.490;2023-07-31T07:27:04;96860;;;22.9;56.5
68628;BME280;55611;48.602;9.490;2023-07-31T07:29:35;96860;;;22.8;56.5
68628;BME280;55611;48.602;9.490;2023-07-31T07:32:06;96860;;;23;56.5
68628;BME280;55611;48.602;9.490;2023-07-31T07:34:36;96860;;;23.2;56.5
68628;BME280;55611;48.602;9.490;2023-07-31T07:37:07;96860;;;23.2;56.5
68628;BME280;55611;48.602;9.490;2023-07-31T07:39:38;96850;;;23.3;56.5
68628;BME280;55611;48.602;9.490;2023-07-31T07:42:09;96860;;;23.4;56.5
68628;BME280;55611;48.602;9.490;2023-07-31T07:44:40;96860;;;23.3;56.5
68628;BME280;55611;48.602;9.490;2023-07-31T07:47:10;96860;;;23.1;56
68628;BME280;55611;48.602;9.490;2023-07-31T07:49:41;96850;;;23;56
68628;BME280;55611;48.602;9.490;2023-07-31T07:52:12;96850;;;22.8;56
68628;BME280;55611;48.602;9.490;2023-07-31T07:54:43;96840;;;22.6;56
68628;BME280;55611;48.602;9.490;2023-07-31T07:57:13;96840;;;22.4;56
68628;BME280;55611;48.602;9.490;2023-07-31T07:59:44;96850;;;22.2;56.5
68628;BME280;55611;48.602;9.490;2023-07-31T08:02:15;96850;;;22.3;56.5
68628;BME280;55611;48.602;9.490;2023-07-31T08:04:46;96850;;;22.4;56
68628;BME280;55611;48.602;9.490;2023-07-31T08:07:17;96840;;;22.6;56
68628;BME280;55611;48.602;9.490;2023-07-31T08:09:47;96850;;;22.7;56
68628;BME280;55611;48.602;9.490;2023-07-31T08:12:18;96850;;;22.9;56
68628;BME280;55611;48.602;9.490;2023-07-31T08:14:49;96850;;;23;56
68628;BME280;55611;48.602;9.490;2023-07-31T08:17:20;96850;;;23.2;56
68628;BME280;55611;48.602;9.490;2023-07-31T08:19:50;96850;;;23.4;56
68628;BME280;55611;48.602;9.490;2023-07-31T08:22:21;96850;;;23.4;56
68628;BME280;55611;48.602;9.490;2023-07-31T08:24:52;96850;;;23.4;56
68628;BME280;55611;48.602;9.490;2023-07-31T08:27:23;96850;;;23.4;56
68628;BME280;55611;48.602;9.490;2023-07-31T08:29:53;96830;;;23.3;56
68628;BME280;55611;48.602;9.490;2023-07-31T08:32:24;96820;;;23.2;56
68628;BME280;55611;48.602;9.490;2023-07-31T08:34:55;96830;;;23.1;56
68628;BME280;55611;48.602;9.490;2023-07-31T08:37:26;96830;;;23;55.5
68628;BME280;55611;48.602;9.490;2023-07-31T08:39:57;96830;;;22.8;55.5
68628;BME280;55611;48.602;9.490;2023-07-31T08:42:27;96830;;;22.8;55.5
68628;BME280;55611;48.602;9.490;2023-07-31T08:44:59;96830;;;22.9;55.5
68628;BME280;55611;48.602;9.490;2023-07-31T08:47:29;96820;;;23.1;55.5
68628;BME280;55611;48.602;9.490;2023-07-31T08:50:00;96820;;;23.3;55.5
68628;BME280;55611;48.602;9.490;2023-07-31T08:52:30;96810;;;23.5;55.5
68628;BME280;55611;48.602;9.490;2023-07-31T08:55:01;96810;;;23.6;55.5
68628;BME280;55611;48.602;9.490;2023-07-31T08:57:32;96810;;;23.6;55.5
68628;BME280;55611;48.602;9.490;2023-07-31T09:00:04;96800;;;23.6;55.5
68628;BME280;55611;48.602;9.490;2023-07-31T09:02:34;96800;;;23.6;55.5
68628;BME280;55611;48.602;9.490;2023-07-31T09:05:06;96800;;;23.7;55.5
68628;BME280;55611;48.602;9.490;2023-07-31T09:07:35;96800;;;23.8;55.5
68628;BME280;55611;48.602;9.490;2023-07-31T09:10:06;96800;;;23.8;55.5
68628;BME280;55611;48.602;9.490;2023-07-31T09:12:37;96800;;;23.8;55.5
68628;BME280;55611;48.602;9.490;2023-07-31T09:15:08;96810;;;23.9;55.5
68628;BME280;55611;48.602;9.490;2023-07-31T09:17:38;96800;;;24.1;55.5
68628;BME280;55611;48.602;9.490;2023-07-31T09:20:13;96790;;;24.3;55.5
68628;BME280;55611;48.602;9.490;2023-07-31T09:22:40;96780;;;24.2;55.5
68628;BME280;55611;48.602;9.490;2023-07-31T09:27:57;96780;;;24.2;55.5
68628;BME280;55611;48.602;9.490;2023-07-31T09:30:12;96780;;;24.3;55.5
68628;BME280;55611;48.602;9.490;2023-07-31T09:32:43;96790;;;24.4;55.5
68628;BME280;55611;48.602;9.490;2023-07-31T09:35:18;96810;;;24.4;55.5
68628;BME280;55611;48.602;9.490;2023-07-31T09:40:31;96780;;;24.2;55.5
68628;BME280;55611;48.602;9.490;2023-07-31T09:42:46;96790;;;24.2;55.5
68628;BME280;55611;48.602;9.490;2023-07-31T09:45:17;96780;;;24.3;55.5
68628;BME280;55611;48.602;9.490;2023-07-31T09:47:48;96780;;;24.4;55.5
68628;BME280;55611;48.602;9.490;2023-07-31T09:50:19;96770;;;24.5;55.5
68628;BME280;55611;48.602;9.490;2023-07-31T09:52:49;96760;;;24.5;55.5
68628;BME280;55611;48.602;9.490;2023-07-31T09:55:20;96770;;;24.5;55.5
68628;BME280;55611;48.602;9.490;2023-07-31T09:57:51;96760;;;24.4;55.5
68628;BME280;55611;48.602;9.490;2023-07-31T10:00:21;96770;;;24.5;55.5
68628;BME280;55611;48.602;9.490;2023-07-31T10:02:52;96750;;;24.8;55.5
68628;BME280;55611;48.602;9.490;2023-07-31T10:05:23;96740;;;24.8;55.5
68628;BME280;55611;48.602;9.490;2023-07-31T10:07:54;96740;;;24.7;55
68628;BME280;55611;48.602;9.490;2023-07-31T10:10:24;96730;;;24.6;55
68628;BME280;55611;48.602;9.490;2023-07-31T10:12:56;96740;;;24.7;55
68628;BME280;55611;48.602;9.490;2023-07-31T10:15:26;96730;;;24.9;55
68628;BME280;55611;48.602;9.490;2023-07-31T10:17:57;96730;;;25.1;55
68628;BME280;55611;48.602;9.490;2023-07-31T10:20:28;96720;;;25.2;55
68628;BME280;55611;48.602;9.490;2023-07-31T10:22:58;96720;;;25.2;55
68628;BME280;55611;48.602;9.490;2023-07-31T10:25:29;96700;;;25.1;55
68628;BME280;55611;48.602;9.490;2023-07-31T10:28:00;96710;;;25.1;55
68628;BME280;55611;48.602;9.490;2023-07-31T10:30:32;96710;;;25.2;55
68628;BME280;55611;48.602;9.490;2023-07-31T10:33:01;96710;;;25.3;55
68628;BME280;55611;48.602;9.490;2023-07-31T10:35:32;96700;;;25.4;55
68628;BME280;55611;48.602;9.490;2023-07-31T10:38:11;96710;;;25.2;55
68628;BME280;55611;48.602;9.490;2023-07-31T10:40:34;96710;;;25.2;55
68628;BME280;55611;48.602;9.490;2023-07-31T10:43:05;96720;;;25.1;55
68628;BME280;55611;48.602;9.490;2023-07-31T10:45:36;96700;;;25.2;55
68628;BME280;55611;48.602;9.490;2023-07-31T10:48:07;96690;;;25.1;55
68628;BME280;55611;48.602;9.490;2023-07-31T10:50:37;96690;;;24.9;55
68628;BME280;55611;48.602;9.490;2023-07-31T10:53:08;96680;;;24.9;55
68628;BME280;55611;48.602;9.490;2023-07-31T10:55:40;96670;;;25;55
68628;BME280;55611;48.602;9.490;2023-07-31T10:58:10;96680;;;25.2;54.5
68628;BME280;55611;48.602;9.490;2023-07-31T11:00:41;96680;;;25.2;54.5
68628;BME280;55611;48.602;9.490;2023-07-31T11:03:15;96690;;;25.3;54.5
68628;BME280;55611;48.602;9.490;2023-07-31T11:05:43;96680;;;25.4;54.5
68628;BME280;55611;48.602;9.490;2023-07-31T11:08:14;96680;;;25.4;54.5
68628;BME280;55611;48.602;9.490;2023-07-31T11:10:43;96680;;;25.4;54.5
68628;BME280;55611;48.602;9.490;2023-07-31T11:13:14;96680;;;25.6;54.5
68628;BME280;55611;48.602;9.490;2023-07-31T11:15:45;96680;;;25.7;54.5
68628;BME280;55611;48.602;9.490;2023-07-31T11:18:15;96660;;;25.8;54.5
68628;BME280;55611;48.602;9.490;2023-07-31T11:20:46;96670;;;26;54.5
68628;BME280;55611;48.602;9.490;2023-07-31T11:23:17;96660;;;26.3;54.5
68628;BME280;55611;48.602;9.490;2023-07-31T11:25:48;96660;;;26.3;54.5
68628;BME280;55611;48.602;9.490;2023-07-31T11:28:19;96670;;;26.4;54.5
68628;BME280;55611;48.602;9.490;2023-07-31T11:30:49;96660;;;26.4;54.5
68628;BME280;55611;48.602;9.490;2023-07-31T11:33:20;96660;;;26.1;54.5
68628;BME280;55611;48.602;9.490;2023-07-31T11:35:51;96670;;;26.2;54.5
68628;BME280;55611;48.602;9.490;2023-07-31T11:38:22;96660;;;26.2;54.5
68628;BME280;55611;48.602;9.490;2023-07-31T11:40:53;96660;;;26.1;54.5
68628;BME280;55611;48.602;9.490;2023-07-31T11:43:24;96650;;;26.1;54.5
68628;BME280;55611;48.602;9.490;2023-07-31T11:45:55;96660;;;26.2;54
68628;BME280;55611;48.602;9.490;2023-07-31T11:50:57;96660;;;26.3;54
68628;BME280;55611;48.602;9.490;2023-07-31T11:53:28;96660;;;26.3;54
68628;BME280;55611;48.602;9.490;2023-07-31T11:55:57;96650;;;26.3;54
68628;BME280;55611;48.602;9.490;2023-07-31T11:58:28;96640;;;26.3;54
68628;BME280;55611;48.602;9.490;2023-07-31T12:00:59;96650;;;26.3;54
68628;BME280;55611;48.602;9.490;2023-07-31T12:03:29;96640;;;26.2;54
68628;BME280;55611;48.602;9.490;2023-07-31T12:06:00;96640;;;26.1;54
68628;BME280;55611;48.602;9.490;2023-07-31T12:08:31;96630;;;26.1;54
68628;BME280;55611;48.602;9.490;2023-07-31T12:11:03;96630;;;26.1;54
68628;BME280;55611;48.602;9.490;2023-07-31T12:13:33;96630;;;26.1;54
68628;BME280;55611;48.602;9.490;2023-07-31T12:16:04;96620;;;26.1;54
68628;BME280;55611;48.602;9.490;2023-07-31T12:18:35;96620;;;26.2;54
68628;BME280;55611;48.602;9.490;2023-07-31T12:21:06;96610;;;26.1;54
68628;BME280;55611;48.602;9.490;2023-07-31T12:23:36;96610;;;26;54
68628;BME280;55611;48.602;9.490;2023-07-31T12:28:38;96610;;;25.9;54
68628;BME280;55611;48.602;9.490;2023-07-31T12:31:09;96600;;;25.9;54
68628;BME280;55611;48.602;9.490;2023-07-31T12:33:39;96600;;;25.7;54
68628;BME280;55611;48.602;9.490;2023-07-31T12:36:10;96590;;;25.5;54
68628;BME280;55611;48.602;9.490;2023-07-31T12:38:40;96590;;;25.4;54
68628;BME280;55611;48.602;9.490;2023-07-31T12:41:11;96590;;;25.5;54
68628;BME280;55611;48.602;9.490;2023-07-31T12:43:43;96590;;;25.7;54
68628;BME280;55611;48.602;9.490;2023-07-31T12:46:12;96580;;;25.8;54
68628;BME280;55611;48.602;9.490;2023-07-31T12:48:43;96580;;;26;54
68628;BME280;55611;48.602;9.490;2023-07-31T12:51:14;96570;;;26.3;54
68628;BME280;55611;48.602;9.490;2023-07-31T12:53:45;96560;;;26.5;54
68628;BME280;55611;48.602;9.490;2023-07-31T12:56:16;96560;;;26.5;54
68628;BME280;55611;48.602;9.490;2023-07-31T12:58:46;96570;;;26.2;54
68628;BME280;55611;48.602;9.490;2023-07-31T13:01:17;96570;;;26.1;53.5
68628;BME280;55611;48.602;9.490;2023-07-31T13:03:48;96560;;;26;53.5
68628;BME280;55611;48.602;9.490;2023-07-31T13:06:19;96550;;;25.8;53.5
68628;BME280;55611;48.602;9.490;2023-07-31T13:08:50;96540;;;25.9;53.5
68628;BME280;55611;48.602;9.490;2023-07-31T13:11:20;96540;;;26.1;53.5
68628;BME280;55611;48.602;9.490;2023-07-31T13:13:51;96540;;;26.4;53.5
68628;BME280;55611;48.602;9.490;2023-07-31T13:16:22;96540;;;26.5;53.5
68628;BME280;55611;48.602;9.490;2023-07-31T13:18:53;96540;;;26.6;53.5
68628;BME280;55611;48.602;9.490;2023-07-31T13:21:23;96540;;;26.7;53.5
68628;BME280;55611;48.602;9.490;2023-07-31T13:23:54;96530;;;26.7;53.5
68628;BME280;55611;48.602;9.490;2023-07-31T13:26:25;96530;;;26.7;53.5
68628;BME280;55611;48.602;9.490;2023-07-31T13:28:56;96540;;;26.6;53.5
68628;BME280;55611;48.602;9.490;2023-07-31T13:31:26;96530;;;26.6;53.5
68628;BME280;55611;48.602;9.490;2023-07-31T13:33:57;96520;;;26.5;53.5
68628;BME280;55611;48.602;9.490;2023-07-31T13:36:28;96530;;;26.5;53.5
68628;BME280;55611;48.602;9.490;2023-07-31T13:38:59;96520;;;26.5;53.5
68628;BME280;55611;48.602;9.490;2023-07-31T13:41:30;96520;;;26.6;53.5
68628;BME280;55611;48.602;9.490;2023-07-31T13:44:00;96520;;;26.7;53.5
68628;BME280;55611;48.602;9.490;2023-07-31T13:51:32;96510;;;26.9;53
68628;BME280;55611;48.602;9.490;2023-07-31T13:54:03;96510;;;26.9;53
68628;BME280;55611;48.602;9.490;2023-07-31T13:56:34;96510;;;26.8;53
68628;BME280;55611;48.602;9.490;2023-07-31T13:59:04;96520;;;26.8;53
68628;BME280;55611;48.602;9.490;2023-07-31T14:01:35;96520;;;26.7;53
68628;BME280;55611;48.602;9.490;2023-07-31T14:04:06;96520;;;26.7;53
68628;BME280;55611;48.602;9.490;2023-07-31T14:06:37;96520;;;26.6;53
68628;BME280;55611;48.602;9.490;2023-07-31T14:09:07;96520;;;26.5;53
68628;BME280;55611;48.602;9.490;2023-07-31T14:11:38;96520;;;26.2;53
68628;BME280;55611;48.602;9.490;2023-07-31T14:14:09;96520;;;26.1;53
68628;BME280;55611;48.602;9.490;2023-07-31T14:16:40;96520;;;26;53
68628;BME280;55611;48.602;9.490;2023-07-31T14:19:11;96520;;;25.9;53
68628;BME280;55611;48.602;9.490;2023-07-31T14:21:41;96520;;;25.9;53
68628;BME280;55611;48.602;9.490;2023-07-31T14:24:12;96520;;;25.8;53
68628;BME280;55611;48.602;9.490;2023-07-31T14:26:43;96520;;;25.8;53
68628;BME280;55611;48.602;9.490;2023-07-31T14:29:14;96520;;;25.8;53
68628;BME280;55611;48.602;9.490;2023-07-31T14:31:44;96520;;;25.7;53
68628;BME280;55611;48.602;9.490;2023-07-31T14:34:15;96520;;;25.7;53
68628;BME280;55611;48.602;9.490;2023-07-31T14:36:46;96520;;;25.6;53
68628;BME280;55611;48.602;9.490;2023-07-31T14:39:17;96520;;;25.6;53
68628;BME280;55611;48.602;9.490;2023-07-31T14:41:48;96520;;;25.5;53
68628;BME280;55611;48.602;9.490;2023-07-31T14:44:18;96520;;;25.5;53.5
68628;BME280;55611;48.602;9.490;2023-07-31T14:46:49;96520;;;25.4;53.5
68628;BME280;55611;48.602;9.490;2023-07-31T14:49:20;96510;;;25.3;53.5
68628;BME280;55611;48.602;9.490;2023-07-31T14:51:51;96510;;;25.2;53.5
68628;BME280;55611;48.602;9.490;2023-07-31T14:54:21;96510;;;25.2;53.5